Glenbrook, CT

1:20 PM EST op 29 januari 2015 (GMT -0500)
SSJR 986 Bedford Street | Change Station
CLOSE
Current Station
Persoonlijk weerstation
Location: Stamford, CT
Geometrische hoogte: 60 ft
Nabije weerstations

Hoogte 60 ft 41.06 °N, 73.54 °W | Updated 9 seconds ago

Helder
Helder
33.9 °F
Voelt als 34 °F
N
2.0
Wind Variabel Wind van OZO
Gusts 2.0 mijl/u

Vandaag
Hoog -- | Laag -- °F
--% Kans op neerslag
Gisteren
Hoog -- | Laag -- °F
Precip. -- inches
7:07 AM 5:06 PM
Wassende maan, 76% visible
Druk 30.23 inches
Zicht 10.0 mijlen
Wolken Helder
Gevoelstemperatuur 34 °F
Dauwpunt 16 °F
Vochtigheid 48%
Neerslag 0.00 inches
Dikte sneeuw Niet beschikbaar.
UV 1.6 van de 12
Pollen .10 van de 12
Luchtkwaliteit Niet beschikbaar.
Flu Activity Niet beschikbaar.
METAR KHPN 291756Z 14004KT 10SM CLR M02/M13 A3020 RMK AO2 SLP237 T10171133 11017 21111 58027

More Conditions Fewer Conditions

Druk 30.23 inches
Zicht 10.0 mijlen
Wolken Helder
Gevoelstemperatuur 34 °F
Dauwpunt 16 °F
Vochtigheid 48%
Neerslag 0.00 inches
Dikte sneeuw Niet beschikbaar.
UV 1.6 van de 12
Pollen .10 van de 12
Luchtkwaliteit Niet beschikbaar.
Flu Activity Niet beschikbaar.
METAR KHPN 291756Z 14004KT 10SM CLR M02/M13 A3020 RMK AO2 SLP237 T10171133 11017 21111 58027

More Conditions Fewer Conditions

10-Day Weather Forecast

Almanac

Astronomie

Jan. 29, 2015 Opkomst Ondergang
Werkelijke tijd
Burgerlijke schemering
Nautische schemering
Astronomische schemering
Maan
Golflengte van het zichtbare licht
Daglengte
Tomorrow will be .
, % of the Moon is Illuminated

Extremen vandaag

State Highs State Lows

Community

WunderPhotos

Upload Photos

1,791,514 foto’s ge-upload!

WunderBlogs® & News

Nearby

Luchtkwaliteit

  Luchtkwaliteit LK-index Verontreinigende stof
Not available.

Dikte sneeuw

Station Depth Geometrische hoogte

Aardbevingen

Stad Distance Mag. Time & Date
Minimum magnitude displayed is 2.5.

Watertemperatuur langs de kust

Plaats Temperatuur

Nabije weerstations